NORTHEAST SUFFOLK  -  Frost Advisory Frost Advisory        NORTHWEST SUFFOLK  -  Frost Advisory Frost Advisory        SOUTHEAST SUFFOLK  -  Frost Advisory Frost Advisory        SOUTHWEST SUFFOLK  -  Frost Advisory Frost Advisory      

Active alerts

Northwest Suffolk
  Details for Northwest Suffolk Frost Advisory
Southwest Suffolk
  Details for Southwest Suffolk Frost Advisory
Northeast Suffolk
  Details for Northeast Suffolk Frost Advisory
Southeast Suffolk
  Details for Southeast Suffolk Frost Advisory


WXM80 ListenWXM80 Stop

You find our weather info also at:

UK Metoffice

WeatherCloud

Weather Underground

Northeastern Weather Network

AWEKAS

Citizen Weather Observer Program (CWOP)

HAMweather, WeatherForYou, PWS Weather


Weather Underground History page Text

Daily Summary for July 22, 2016 Units:  English    Metric   Both
« Previous Day
Next Day »
Daily Weekly Monthly Yearly Custom
  High: Low: Average:
Temperature: 97.6 °F 72.5 °F 83.8 °F
Dew Point: 75.9 °F 66.3 °F 71.9 °F
Humidity: 89 % 47 % 69 %
Wind Speed: 8.4 mph 0.0 mph 3 mph
Wind Gust: 19.6 mph - -
Wind:- - SW
Pressure: 29.99 in 29.74 in -
Precipitation: 0.00 in    
Historical Graphs
 
 
Tabular Data for July 22, 2016
Time Temperature Dew Point Pressure Wind Wind Speed Wind Gust Humidity Rainfall Rate (Hourly)
00:03 75.1 °F 67.8 °F 29.99 in WSW 1.1 mph 5.8 mph 78 % 0.00 in
00:09 75.1 °F 67.4 °F 29.99 in SW 2.8 mph 5.8 mph 77 % 0.00 in
00:14 75.1 °F 67.4 °F 29.99 in SW 3.6 mph 5.8 mph 77 % 0.00 in
00:19 75.1 °F 67.4 °F 29.99 in WSW 2.6 mph 6.9 mph 77 % 0.00 in
00:24 75.1 °F 67.0 °F 29.99 in SSW 3.6 mph 6.9 mph 76 % 0.00 in
00:29 75.1 °F 67.0 °F 29.99 in SW 3.2 mph 5.8 mph 76 % 0.00 in
00:34 75.1 °F 67.0 °F 29.98 in SSW 1.6 mph 4.6 mph 76 % 0.00 in
00:37 75.1 °F 66.6 °F 29.98 in SW 2.2 mph 8.1 mph 75 % 0.00 in
00:42 75.0 °F 66.5 °F 29.98 in West 1.5 mph 4.6 mph 75 % 0.00 in
00:43 75.0 °F 66.5 °F 29.98 in SSW 2.2 mph 3.5 mph 75 % 0.00 in
00:48 75.0 °F 66.5 °F 29.98 in SW 1.2 mph 3.5 mph 75 % 0.00 in
00:54 74.9 °F 66.4 °F 29.98 in South 0.7 mph 4.6 mph 75 % 0.00 in
00:59 74.9 °F 66.4 °F 29.98 in SSW 4.3 mph 5.8 mph 75 % 0.00 in
01:04 74.8 °F 66.3 °F 29.98 in SW 4.4 mph 7.0 mph 75 % 0.00 in
01:09 74.8 °F 66.3 °F 29.98 in Calm     75 % 0.00 in
01:14 74.8 °F 66.3 °F 29.98 in SSW 3.0 mph 6.0 mph 75 % 0.00 in
01:15 74.8 °F 66.3 °F 29.98 in SSW 3.3 mph 5.8 mph 75 % 0.00 in
01:20 74.7 °F 66.6 °F 29.98 in SW 1.0 mph 6.0 mph 76 % 0.00 in
01:25 74.7 °F 66.6 °F 29.98 in SW 4.4 mph 7.0 mph 76 % 0.00 in
01:30 74.6 °F 66.5 °F 29.97 in South 2.2 mph 5.0 mph 76 % 0.00 in
01:35 74.6 °F 66.9 °F 29.97 in SW 1.5 mph 3.5 mph 77 % 0.00 in
01:40 74.5 °F 66.8 °F 29.97 in SW 1.6 mph 3.5 mph 77 % 0.00 in
01:46 74.5 °F 66.8 °F 29.97 in SSW 1.0 mph 7.0 mph 77 % 0.00 in
01:51 74.4 °F 66.7 °F 29.97 in SW 2.0 mph 7.0 mph 77 % 0.00 in
01:56 74.3 °F 66.6 °F 29.97 in SW 3.6 mph 9.0 mph 77 % 0.00 in
02:01 74.2 °F 66.9 °F 29.97 in WSW 1.8 mph 4.6 mph 78 % 0.00 in
02:06 74.1 °F 66.8 °F 29.97 in WSW 1.1 mph 3.5 mph 78 % 0.00 in
02:11 74.0 °F 66.7 °F 29.97 in WSW 0.9 mph 3.5 mph 78 % 0.00 in
02:16 74.0 °F 67.1 °F 29.98 in WSW 1.7 mph 4.0 mph 79 % 0.00 in
02:21 73.9 °F 67.0 °F 29.97 in WSW 3.7 mph 6.9 mph 79 % 0.00 in
02:23 73.8 °F 66.9 °F 29.97 in SW 0.2 mph 1.2 mph 79 % 0.00 in
02:28 73.7 °F 67.1 °F 29.97 in WSW 1.3 mph 3.0 mph 80 % 0.00 in
02:33 73.7 °F 67.1 °F 29.97 in WSW 2.8 mph 5.0 mph 80 % 0.00 in
02:38 73.6 °F 67.0 °F 29.97 in SW 0.3 mph 2.0 mph 80 % 0.00 in
02:41 73.5 °F 66.9 °F 29.97 in West 2.7 mph 5.8 mph 80 % 0.00 in
02:46 73.5 °F 67.3 °F 29.97 in SW 2.3 mph 4.6 mph 81 % 0.00 in
02:51 73.4 °F 67.2 °F 29.97 in WSW 0.9 mph 2.3 mph 81 % 0.00 in
02:56 73.4 °F 67.2 °F 29.97 in SW 0.6 mph 3.5 mph 81 % 0.00 in
03:01 73.3 °F 67.1 °F 29.97 in SW 0.1 mph 3.5 mph 81 % 0.00 in
03:02 73.3 °F 67.1 °F 29.97 in SW 0.1 mph 1.2 mph 81 % 0.00 in
03:07 73.2 °F 67.0 °F 29.97 in SW 1.9 mph 6.0 mph 81 % 0.00 in
03:12 73.1 °F 66.9 °F 29.97 in WSW 2.1 mph 4.6 mph 81 % 0.00 in
03:18 73.1 °F 66.9 °F 29.97 in SSW 0.9 mph 2.3 mph 81 % 0.00 in
03:23 73.0 °F 66.8 °F 29.96 in West 0.5 mph 4.6 mph 81 % 0.00 in
03:28 73.0 °F 66.8 °F 29.96 in SSW 0.1 mph 3.5 mph 81 % 0.00 in
03:33 72.9 °F 67.1 °F 29.96 in SW 0.5 mph 2.3 mph 82 % 0.00 in
03:36 72.9 °F 67.1 °F 29.95 in WSW 3.4 mph 8.1 mph 82 % 0.00 in
03:47 72.9 °F 67.4 °F 29.95 in SW 1.5 mph 6.0 mph 83 % 0.00 in
03:48 72.8 °F 67.3 °F 29.95 in WSW 2.1 mph 6.9 mph 83 % 0.00 in
03:51 72.9 °F 67.8 °F 29.95 in WSW 0.9 mph 3.5 mph 84 % 0.00 in
03:56 72.9 °F 67.8 °F 29.95 in SW 2.0 mph 4.6 mph 84 % 0.00 in
04:01 72.9 °F 67.8 °F 29.95 in SW 0.7 mph 3.5 mph 84 % 0.00 in
04:06 72.9 °F 68.1 °F 29.96 in West 0.5 mph 3.5 mph 85 % 0.00 in
04:11 72.9 °F 68.1 °F 29.96 in WSW 0.9 mph 3.0 mph 85 % 0.00 in
04:13 72.9 °F 68.1 °F 29.96 in SW 2.3 mph 3.5 mph 85 % 0.00 in
04:15 72.9 °F 68.1 °F 29.96 in SW 2.0 mph 5.8 mph 85 % 0.00 in
04:20 72.9 °F 68.5 °F 29.96 in SW 1.5 mph 3.0 mph 86 % 0.00 in
04:25 72.9 °F 68.5 °F 29.96 in SW 2.7 mph 4.6 mph 86 % 0.00 in
04:30 72.9 °F 68.5 °F 29.96 in SW 0.3 mph 3.5 mph 86 % 0.00 in
04:35 72.9 °F 68.8 °F 29.96 in SW 1.2 mph 2.3 mph 87 % 0.00 in
04:40 72.9 °F 68.8 °F 29.96 in SW 2.0 mph 6.0 mph 87 % 0.00 in
04:41 72.9 °F 68.8 °F 29.95 in SW 1.7 mph 5.8 mph 87 % 0.00 in
04:46 72.9 °F 68.8 °F 29.95 in WSW 3.4 mph 5.8 mph 87 % 0.00 in
04:51 72.8 °F 69.0 °F 29.95 in SSW 3.4 mph 4.6 mph 88 % 0.00 in
04:56 72.8 °F 69.0 °F 29.95 in WSW 0.4 mph 3.5 mph 88 % 0.00 in
05:02 72.8 °F 69.0 °F 29.95 in SW 1.6 mph 3.5 mph 88 % 0.00 in
05:06 72.8 °F 69.0 °F 29.95 in WSW 0.3 mph 1.2 mph 88 % 0.00 in
05:11 72.8 °F 69.0 °F 29.95 in WSW 2.1 mph 6.9 mph 88 % 0.00 in
05:16 72.7 °F 68.9 °F 29.94 in South 2.3 mph 3.5 mph 88 % 0.00 in
05:21 72.6 °F 68.8 °F 29.94 in SW 0.8 mph 2.3 mph 88 % 0.00 in
05:26 72.6 °F 69.2 °F 29.94 in Calm   3.5 mph 89 % 0.00 in
05:31 72.6 °F 69.2 °F 29.94 in SW 0.5 mph 2.3 mph 89 % 0.00 in
05:33 72.6 °F 69.2 °F 29.94 in SSW 1.4 mph 3.5 mph 89 % 0.00 in
05:38 72.6 °F 69.2 °F 29.94 in SW 0.5 mph 3.5 mph 89 % 0.00 in
05:43 72.5 °F 69.1 °F 29.94 in SW 2.1 mph 4.0 mph 89 % 0.00 in
05:48 72.5 °F 69.1 °F 29.94 in ESE 0.5 mph 3.5 mph 89 % 0.00 in
05:53 72.5 °F 69.1 °F 29.94 in SW 2.2 mph 5.0 mph 89 % 0.00 in
05:58 72.5 °F 69.1 °F 29.94 in WSW 0.8 mph 3.0 mph 89 % 0.00 in
06:02 72.6 °F 69.2 °F 29.94 in SW 1.2 mph 4.6 mph 89 % 0.00 in
06:07 72.6 °F 69.2 °F 29.94 in SW 0.9 mph 3.5 mph 89 % 0.00 in
06:12 72.6 °F 69.2 °F 29.94 in SW 2.1 mph 4.6 mph 89 % 0.00 in
06:17 72.7 °F 69.3 °F 29.94 in SSW 1.2 mph 3.5 mph 89 % 0.00 in
06:22 72.8 °F 69.4 °F 29.94 in SW 1.8 mph 4.6 mph 89 % 0.00 in
06:27 72.8 °F 69.4 °F 29.94 in SSW 2.1 mph 3.5 mph 89 % 0.00 in
06:32 72.9 °F 69.5 °F 29.94 in SSW 2.1 mph 5.8 mph 89 % 0.00 in
06:38 73.1 °F 69.7 °F 29.93 in SSW 2.5 mph 5.8 mph 89 % 0.00 in
06:43 73.2 °F 69.8 °F 29.93 in SSW 2.6 mph 4.6 mph 89 % 0.00 in
06:48 73.4 °F 70.0 °F 29.93 in SSW 1.3 mph 3.5 mph 89 % 0.00 in
06:53 73.6 °F 69.8 °F 29.93 in SW 3.1 mph 9.2 mph 88 % 0.00 in
06:58 73.9 °F 69.8 °F 29.93 in WSW 2.5 mph 3.0 mph 87 % 0.00 in
07:03 74.1 °F 70.0 °F 29.93 in SW 1.6 mph 3.5 mph 87 % 0.00 in
07:08 74.3 °F 70.2 °F 29.93 in SW 4.2 mph 9.2 mph 87 % 0.00 in
07:13 74.5 °F 70.4 °F 29.93 in South 3.9 mph 6.9 mph 87 % 0.00 in
07:14 74.6 °F 70.5 °F 29.92 in WSW 1.4 mph 6.9 mph 87 % 0.00 in
07:19 74.7 °F 70.6 °F 29.92 in SW 3.1 mph 7.0 mph 87 % 0.00 in
07:24 75.0 °F 70.5 °F 29.92 in SSW 4.0 mph 8.1 mph 86 % 0.00 in
07:29 75.2 °F 70.4 °F 29.92 in SW 1.0 mph 4.6 mph 85 % 0.00 in
07:34 75.5 °F 70.7 °F 29.92 in SW 3.2 mph 5.8 mph 85 % 0.00 in
07:39 75.7 °F 70.9 °F 29.92 in SSW 4.0 mph 6.0 mph 85 % 0.00 in
07:44 75.9 °F 70.7 °F 29.92 in SSW 4.9 mph 9.2 mph 84 % 0.00 in
07:50 76.1 °F 70.6 °F 29.92 in SW 4.6 mph 6.9 mph 83 % 0.00 in
07:55 76.3 °F 70.8 °F 29.92 in SW 3.7 mph 9.2 mph 83 % 0.00 in
08:00 76.4 °F 70.9 °F 29.92 in SW 3.8 mph 5.8 mph 83 % 0.00 in
08:05 76.5 °F 70.9 °F 29.92 in SW 1.2 mph 5.0 mph 83 % 0.00 in
08:10 76.6 °F 71.0 °F 29.92 in SW 1.5 mph 6.9 mph 83 % 0.00 in
08:13 76.7 °F 71.1 °F 29.92 in WSW 4.5 mph 10.0 mph 83 % 0.00 in
08:17 76.8 °F 70.9 °F 29.92 in SW 5.9 mph 11.5 mph 82 % 0.00 in
08:22 77.1 °F 71.2 °F 29.92 in SW 4.3 mph 8.0 mph 82 % 0.00 in
08:27 77.3 °F 71.4 °F 29.92 in SW 3.8 mph 8.0 mph 82 % 0.00 in
08:32 77.5 °F 71.6 °F 29.92 in SSW 3.2 mph 4.6 mph 82 % 0.00 in
08:37 77.7 °F 71.4 °F 29.92 in SW 3.2 mph 6.9 mph 81 % 0.00 in
08:42 77.9 °F 71.6 °F 29.91 in South 5.3 mph 8.1 mph 81 % 0.00 in
08:47 78.1 °F 71.4 °F 29.92 in South 6.0 mph 8.1 mph 80 % 0.00 in
08:53 78.3 °F 71.2 °F 29.91 in SSW 6.5 mph 7.0 mph 79 % 0.00 in
08:58 78.5 °F 71.4 °F 29.91 in WSW 1.0 mph 3.5 mph 79 % 0.00 in
09:03 78.7 °F 72.0 °F 29.91 in WSW 4.5 mph 10.0 mph 80 % 0.00 in
09:08 79.0 °F 71.9 °F 29.91 in SSW 3.3 mph 11.5 mph 79 % 0.00 in
09:13 79.3 °F 71.5 °F 29.91 in WSW 5.6 mph 9.2 mph 77 % 0.00 in
09:18 79.7 °F 71.8 °F 29.91 in South 5.2 mph 8.0 mph 77 % 0.00 in
09:23 80.0 °F 71.8 °F 29.91 in SSW 4.7 mph 9.2 mph 76 % 0.00 in
09:28 80.3 °F 71.6 °F 29.91 in SSW 4.2 mph 7.0 mph 75 % 0.00 in
09:33 80.6 °F 71.5 °F 29.91 in SW 6.3 mph 11.5 mph 74 % 0.00 in
09:38 80.8 °F 72.1 °F 29.91 in WSW 4.9 mph 8.1 mph 75 % 0.00 in
09:41 81.0 °F 71.9 °F 29.90 in South 0.7 mph 3.5 mph 74 % 0.00 in
09:46 81.2 °F 72.1 °F 29.90 in SSW 5.4 mph 6.9 mph 74 % 0.00 in
09:51 81.5 °F 72.0 °F 29.90 in South 4.6 mph 5.8 mph 73 % 0.00 in
09:56 81.8 °F 72.7 °F 29.90 in West 2.6 mph 6.9 mph 74 % 0.00 in
10:02 82.3 °F 72.8 °F 29.90 in SW 3.6 mph 9.2 mph 73 % 0.00 in
10:07 82.9 °F 72.5 °F 29.90 in SW 5.3 mph 10.4 mph 71 % 0.00 in
10:12 83.6 °F 73.6 °F 29.90 in SSW 1.8 mph 3.5 mph 72 % 0.00 in
10:17 84.5 °F 74.1 °F 29.89 in SW 1.8 mph 4.0 mph 71 % 0.00 in
10:22 85.2 °F 73.0 °F 29.89 in SW 5.5 mph 9.2 mph 67 % 0.00 in
10:27 85.9 °F 73.7 °F 29.89 in SSW 3.9 mph 9.2 mph 67 % 0.00 in
10:32 86.4 °F 73.2 °F 29.89 in SW 3.0 mph 3.5 mph 65 % 0.00 in
10:37 87.0 °F 73.8 °F 29.89 in WSW 2.3 mph 7.0 mph 65 % 0.00 in
10:42 87.5 °F 73.8 °F 29.89 in WSW 5.5 mph 6.9 mph 64 % 0.00 in
10:47 87.7 °F 73.1 °F 29.89 in WSW 6.6 mph 9.2 mph 62 % 0.00 in
10:52 87.9 °F 73.7 °F 29.89 in WSW 6.1 mph 11.5 mph 63 % 0.00 in
10:53 88.0 °F 73.8 °F 29.89 in SW 2.8 mph 11.5 mph 63 % 0.00 in
10:58 88.4 °F 74.7 °F 29.89 in SW 6.4 mph 9.2 mph 64 % 0.00 in
11:03 89.0 °F 73.8 °F 29.89 in SSW 5.6 mph 10.4 mph 61 % 0.00 in
11:08 89.4 °F 74.7 °F 29.88 in SSW 6.2 mph 10.0 mph 62 % 0.00 in
11:12 89.7 °F 74.0 °F 29.89 in SW 5.3 mph 8.1 mph 60 % 0.00 in
11:17 90.2 °F 74.9 °F 29.88 in WSW 5.2 mph 9.2 mph 61 % 0.00 in
11:22 90.4 °F 74.1 °F 29.88 in SSW 5.5 mph 7.0 mph 59 % 0.00 in
11:27 90.9 °F 74.6 °F 29.89 in WSW 2.1 mph 6.9 mph 59 % 0.00 in
11:32 91.5 °F 75.1 °F 29.88 in SW 2.3 mph 9.2 mph 59 % 0.00 in
11:38 92.0 °F 74.6 °F 29.88 in SSW 4.4 mph 8.1 mph 57 % 0.00 in
11:43 92.4 °F 74.4 °F 29.88 in WSW 6.0 mph 10.4 mph 56 % 0.00 in
11:48 92.6 °F 74.6 °F 29.87 in WNW 4.5 mph 8.1 mph 56 % 0.00 in
11:53 92.8 °F 74.3 °F 29.87 in SW 5.1 mph 9.2 mph 55 % 0.00 in
11:58 93.0 °F 73.9 °F 29.87 in West 6.1 mph 13.0 mph 54 % 0.00 in
12:03 93.2 °F 75.7 °F 29.86 in SW 4.7 mph 9.2 mph 57 % 0.00 in
12:08 93.5 °F 75.4 °F 29.86 in WSW 4.4 mph 8.0 mph 56 % 0.00 in
12:13 93.8 °F 75.2 °F 29.86 in SW 1.9 mph 3.5 mph 55 % 0.00 in
12:17 94.0 °F 74.8 °F 29.86 in SSW 4.5 mph 6.9 mph 54 % 0.00 in
12:22 94.4 °F 75.2 °F 29.86 in West 3.0 mph 4.6 mph 54 % 0.00 in
12:27 94.6 °F 74.8 °F 29.86 in SW 5.0 mph 9.2 mph 53 % 0.00 in
12:32 94.8 °F 75.0 °F 29.85 in SSW 4.8 mph 7.0 mph 53 % 0.00 in
12:36 95.0 °F 75.2 °F 29.85 in NE 0.2 mph 4.6 mph 53 % 0.00 in
12:37 95.0 °F 75.2 °F 29.84 in NE 0.3 mph 4.6 mph 53 % 0.00 in
12:42 95.5 °F 75.6 °F 29.84 in West 4.3 mph 8.0 mph 53 % 0.00 in
12:47 95.6 °F 74.6 °F 29.84 in SW 6.0 mph 8.1 mph 51 % 0.00 in
12:52 95.6 °F 75.2 °F 29.84 in SW 3.0 mph 10.4 mph 52 % 0.00 in
12:57 95.7 °F 74.1 °F 29.84 in WSW 5.4 mph 8.0 mph 50 % 0.00 in
13:02 95.9 °F 74.3 °F 29.84 in SSW 6.1 mph 8.1 mph 50 % 0.00 in
13:09 96.3 °F 75.2 °F 29.84 in SSW 3.1 mph 9.2 mph 51 % 0.00 in
13:14 96.3 °F 74.0 °F 29.84 in SSW 6.9 mph 13.0 mph 49 % 0.00 in
13:16 96.2 °F 74.5 °F 29.84 in WSW 4.4 mph 12.7 mph 50 % 0.00 in
13:21 96.2 °F 74.5 °F 29.83 in West 5.1 mph 8.1 mph 50 % 0.00 in
13:26 96.3 °F 75.2 °F 29.83 in West 2.1 mph 5.0 mph 51 % 0.00 in
13:31 96.5 °F 74.2 °F 29.83 in SW 4.4 mph 6.9 mph 49 % 0.00 in
13:36 96.7 °F 74.4 °F 29.83 in SW 6.5 mph 11.5 mph 49 % 0.00 in
13:41 96.9 °F 75.2 °F 29.83 in WSW 5.9 mph 13.0 mph 50 % 0.00 in
13:42 97.0 °F 74.7 °F 29.83 in SSW 6.9 mph 12.7 mph 49 % 0.00 in
13:47 97.2 °F 74.9 °F 29.83 in WSW 0.6 mph 2.3 mph 49 % 0.00 in
13:52 97.4 °F 75.0 °F 29.83 in SW 6.3 mph 11.5 mph 49 % 0.00 in
13:57 97.4 °F 74.4 °F 29.82 in SSW 7.3 mph 11.5 mph 48 % 0.00 in
14:02 97.4 °F 73.8 °F 29.82 in WSW 7.6 mph 12.7 mph 47 % 0.00 in
14:07 97.6 °F 75.2 °F 29.82 in SW 8.4 mph 11.5 mph 49 % 0.00 in
14:12 97.5 °F 75.7 °F 29.82 in South 3.3 mph 5.0 mph 50 % 0.00 in
14:17 97.3 °F 74.9 °F 29.82 in South 4.8 mph 6.0 mph 49 % 0.00 in
14:23 97.2 °F 74.9 °F 29.82 in SSW 7.5 mph 13.8 mph 49 % 0.00 in
14:28 97.1 °F 74.1 °F 29.82 in WSW 7.9 mph 12.7 mph 48 % 0.00 in
14:33 97.1 °F 75.4 °F 29.82 in SE 4.2 mph 9.2 mph 50 % 0.00 in
14:38 97.0 °F 75.3 °F 29.81 in SW 3.8 mph 7.0 mph 50 % 0.00 in
14:43 96.9 °F 75.2 °F 29.81 in WSW 4.8 mph 6.9 mph 50 % 0.00 in
14:48 96.8 °F 75.1 °F 29.81 in SSW 3.4 mph 5.0 mph 50 % 0.00 in
14:51 96.9 °F 74.6 °F 29.80 in SW 6.6 mph 12.0 mph 49 % 0.00 in
14:53 96.9 °F 74.6 °F 29.80 in WSW 3.4 mph 11.5 mph 49 % 0.00 in
14:58 96.9 °F 75.2 °F 29.80 in NNE 3.1 mph 11.5 mph 50 % 0.00 in
15:03 97.0 °F 75.9 °F 29.80 in SSE 3.4 mph 10.4 mph 51 % 0.00 in
15:06 97.1 °F 75.4 °F 29.81 in SW 2.4 mph 6.9 mph 50 % 0.00 in
15:11 97.3 °F 75.5 °F 29.80 in West 4.3 mph 8.1 mph 50 % 0.00 in
15:16 97.4 °F 75.0 °F 29.80 in SW 5.1 mph 9.2 mph 49 % 0.00 in
15:21 97.3 °F 74.9 °F 29.79 in SE 3.7 mph 6.9 mph 49 % 0.00 in
15:26 97.2 °F 74.9 °F 29.79 in SW 5.5 mph 10.4 mph 49 % 0.00 in
15:31 97.1 °F 75.4 °F 29.79 in SW 3.6 mph 8.0 mph 50 % 0.00 in
15:36 96.9 °F 75.2 °F 29.79 in South 1.1 mph 3.5 mph 50 % 0.00 in
15:41 96.7 °F 74.4 °F 29.79 in SSE 3.6 mph 8.1 mph 49 % 0.00 in
15:46 96.4 °F 74.7 °F 29.78 in South 4.8 mph 5.8 mph 50 % 0.00 in
15:52 96.3 °F 75.2 °F 29.78 in SSW 2.3 mph 6.9 mph 51 % 0.00 in
15:57 96.2 °F 74.5 °F 29.78 in SSW 0.7 mph 3.5 mph 50 % 0.00 in
15:58 96.2 °F 75.1 °F 29.78 in SE 3.0 mph 4.0 mph 51 % 0.00 in
16:03 96.2 °F 75.7 °F 29.78 in NNW 1.9 mph 4.6 mph 52 % 0.00 in
16:08 96.2 °F 75.1 °F 29.78 in NW 5.8 mph 5.8 mph 51 % 0.00 in
16:13 96.1 °F 75.0 °F 29.78 in SSW 5.4 mph 6.9 mph 51 % 0.00 in
16:18 96.1 °F 75.0 °F 29.78 in SW 3.8 mph 7.0 mph 51 % 0.00 in
16:22 95.9 °F 74.9 °F 29.77 in SW 2.6 mph 6.9 mph 51 % 0.00 in
16:27 95.8 °F 75.3 °F 29.77 in SSW 5.5 mph 8.1 mph 52 % 0.00 in
16:32 95.6 °F 74.6 °F 29.77 in SSW 1.4 mph 4.0 mph 51 % 0.00 in
16:37 95.2 °F 74.8 °F 29.77 in East 2.8 mph 3.5 mph 52 % 0.00 in
16:41 95.1 °F 74.7 °F 29.77 in South 3.4 mph 8.1 mph 52 % 0.00 in
16:43 95.0 °F 74.6 °F 29.77 in SSW 4.8 mph 9.2 mph 52 % 0.00 in
16:48 94.3 °F 74.0 °F 29.77 in SW 3.5 mph 5.0 mph 52 % 0.00 in
16:53 94.0 °F 74.3 °F 29.76 in SSW 1.4 mph 3.5 mph 53 % 0.00 in
16:55 94.0 °F 74.8 °F 29.76 in SSW 2.6 mph 8.1 mph 54 % 0.00 in
17:00 94.1 °F 74.9 °F 29.76 in SW 1.9 mph 8.1 mph 54 % 0.00 in
17:05 94.1 °F 74.9 °F 29.76 in WSW 4.5 mph 8.0 mph 54 % 0.00 in
17:10 94.2 °F 75.0 °F 29.76 in South 4.4 mph 10.4 mph 54 % 0.00 in
17:11 94.2 °F 75.0 °F 29.76 in SSW 3.1 mph 6.9 mph 54 % 0.00 in
17:14 94.2 °F 75.0 °F 29.76 in SSW 5.9 mph 10.4 mph 54 % 0.00 in
17:15 94.2 °F 75.0 °F 29.76 in West 6.3 mph 10.4 mph 54 % 0.00 in
17:16 94.2 °F 74.4 °F 29.76 in SSW 5.4 mph 9.2 mph 53 % 0.00 in
17:17 94.1 °F 74.9 °F 29.76 in South 3.2 mph 9.2 mph 54 % 0.00 in
17:18 94.1 °F 74.9 °F 29.76 in SSW 6.0 mph 10.0 mph 54 % 0.00 in
17:22 93.8 °F 74.6 °F 29.76 in SSW 3.3 mph 4.6 mph 54 % 0.00 in
17:27 93.3 °F 74.2 °F 29.76 in South 2.1 mph 6.9 mph 54 % 0.00 in
17:32 92.6 °F 74.1 °F 29.76 in SW 5.2 mph 12.0 mph 55 % 0.00 in
17:37 92.0 °F 74.1 °F 29.76 in SW 1.3 mph 3.5 mph 56 % 0.00 in
17:42 91.7 °F 74.3 °F 29.75 in SSW 0.7 mph 2.3 mph 57 % 0.00 in
17:52 90.8 °F 74.5 °F 29.76 in WSW 1.2 mph 10.0 mph 59 % 0.00 in
17:57 90.6 °F 74.3 °F 29.76 in SSW 3.1 mph 6.9 mph 59 % 0.00 in
18:02 90.6 °F 74.3 °F 29.76 in SSW 1.7 mph 5.8 mph 59 % 0.00 in
18:07 90.5 °F 74.2 °F 29.75 in SSW 4.0 mph 8.1 mph 59 % 0.00 in
18:13 90.4 °F 74.6 °F 29.75 in South 3.1 mph 4.6 mph 60 % 0.00 in
18:18 90.2 °F 73.9 °F 29.75 in SW 2.3 mph 3.5 mph 59 % 0.00 in
18:23 90.2 °F 74.4 °F 29.75 in South 1.3 mph 4.0 mph 60 % 0.00 in
18:28 89.9 °F 74.2 °F 29.75 in South 3.4 mph 6.9 mph 60 % 0.00 in
18:33 89.6 °F 74.4 °F 29.75 in SE 2.1 mph 3.5 mph 61 % 0.00 in
18:38 89.2 °F 74.5 °F 29.75 in South 2.8 mph 5.8 mph 62 % 0.00 in
18:43 88.8 °F 74.1 °F 29.75 in SSW 2.8 mph 5.0 mph 62 % 0.00 in
18:48 88.4 °F 73.7 °F 29.75 in SSW 2.4 mph 4.6 mph 62 % 0.00 in
18:53 88.1 °F 73.4 °F 29.75 in South 0.8 mph 4.6 mph 62 % 0.00 in
18:58 87.7 °F 74.0 °F 29.75 in West 2.2 mph 3.5 mph 64 % 0.00 in
19:04 87.5 °F 73.8 °F 29.74 in WSW 3.1 mph 5.0 mph 64 % 0.00 in
19:09 87.2 °F 74.0 °F 29.74 in SSW 1.6 mph 4.0 mph 65 % 0.00 in
19:14 87.0 °F 73.8 °F 29.74 in South 0.7 mph 3.5 mph 65 % 0.00 in
19:19 86.8 °F 74.1 °F 29.74 in SW 1.7 mph 3.5 mph 66 % 0.00 in
19:24 86.6 °F 73.9 °F 29.74 in SSW 1.3 mph 3.5 mph 66 % 0.00 in
19:29 86.3 °F 74.0 °F 29.74 in WSW 1.2 mph 4.0 mph 67 % 0.00 in
19:34 86.1 °F 73.9 °F 29.74 in SSW 2.1 mph 3.5 mph 67 % 0.00 in
19:39 85.9 °F 74.1 °F 29.74 in SSW 3.4 mph 5.8 mph 68 % 0.00 in
19:44 85.6 °F 73.8 °F 29.74 in ESE 0.5 mph 3.5 mph 68 % 0.00 in
19:49 85.4 °F 74.1 °F 29.74 in SSE 1.5 mph 3.5 mph 69 % 0.00 in
19:54 85.1 °F 73.8 °F 29.75 in SSW 2.3 mph 7.0 mph 69 % 0.00 in
20:00 85.0 °F 74.1 °F 29.75 in WSW 0.7 mph 3.5 mph 70 % 0.00 in
20:05 84.7 °F 73.8 °F 29.75 in SW 1.2 mph 3.5 mph 70 % 0.00 in
20:10 84.6 °F 73.7 °F 29.75 in SSW 1.2 mph 5.0 mph 70 % 0.00 in
20:15 84.4 °F 73.5 °F 29.74 in SSE 1.1 mph 3.5 mph 70 % 0.00 in
20:20 84.3 °F 73.9 °F 29.74 in South 0.3 mph 2.3 mph 71 % 0.00 in
20:25 84.1 °F 73.7 °F 29.74 in SSW 1.3 mph 2.3 mph 71 % 0.00 in
20:30 84.0 °F 73.6 °F 29.74 in SSW 1.1 mph 3.5 mph 71 % 0.00 in
20:35 83.9 °F 73.5 °F 29.74 in WSW 2.7 mph 3.5 mph 71 % 0.00 in
20:40 83.8 °F 73.4 °F 29.74 in SW 2.7 mph 5.8 mph 71 % 0.00 in
20:45 83.8 °F 73.4 °F 29.74 in South 0.8 mph 5.8 mph 71 % 0.00 in
20:51 83.7 °F 73.3 °F 29.74 in South 1.0 mph 4.0 mph 71 % 0.00 in
20:56 83.6 °F 73.2 °F 29.74 in SSW 2.0 mph 6.0 mph 71 % 0.00 in
21:01 83.4 °F 73.0 °F 29.74 in SW 1.4 mph 3.5 mph 71 % 0.00 in
21:06 83.4 °F 73.0 °F 29.74 in SW 2.1 mph 7.0 mph 71 % 0.00 in
21:11 83.3 °F 72.9 °F 29.75 in SW 4.4 mph 6.9 mph 71 % 0.00 in
21:16 83.2 °F 72.8 °F 29.75 in SW 2.2 mph 5.8 mph 71 % 0.00 in
21:21 83.2 °F 72.8 °F 29.75 in SSW 2.5 mph 6.9 mph 71 % 0.00 in
21:26 83.2 °F 72.8 °F 29.75 in WSW 1.2 mph 3.5 mph 71 % 0.00 in
21:31 83.1 °F 72.7 °F 29.75 in SSW 3.1 mph 4.0 mph 71 % 0.00 in
21:36 83.1 °F 72.7 °F 29.75 in SW 2.4 mph 4.0 mph 71 % 0.00 in
21:41 83.1 °F 72.3 °F 29.75 in SSW 2.5 mph 3.5 mph 70 % 0.00 in
21:47 83.1 °F 72.3 °F 29.75 in SW 1.6 mph 3.5 mph 70 % 0.00 in
21:52 83.1 °F 72.3 °F 29.76 in SW 2.2 mph 3.5 mph 70 % 0.00 in
21:57 83.2 °F 72.4 °F 29.76 in SSW 1.1 mph 3.5 mph 70 % 0.00 in
22:02 83.1 °F 72.3 °F 29.76 in SW 3.1 mph 5.0 mph 70 % 0.00 in
22:07 83.2 °F 72.0 °F 29.75 in SSW 2.6 mph 3.5 mph 69 % 0.00 in
22:12 83.2 °F 72.4 °F 29.75 in SW 3.6 mph 5.8 mph 70 % 0.00 in
22:17 83.2 °F 72.4 °F 29.75 in SSW 5.1 mph 8.1 mph 70 % 0.00 in
22:22 83.2 °F 72.4 °F 29.75 in South 4.0 mph 5.8 mph 70 % 0.00 in
22:27 83.3 °F 72.5 °F 29.75 in SSW 4.1 mph 13.8 mph 70 % 0.00 in
22:32 83.4 °F 72.2 °F 29.75 in SW 2.5 mph 5.0 mph 69 % 0.00 in
22:38 83.5 °F 72.3 °F 29.75 in South 2.5 mph 6.9 mph 69 % 0.00 in
22:43 83.6 °F 72.3 °F 29.75 in SW 2.6 mph 19.6 mph 69 % 0.00 in
22:48 83.7 °F 72.4 °F 29.75 in SSW 2.0 mph 12.7 mph 69 % 0.00 in
22:53 83.8 °F 72.5 °F 29.75 in South 5.6 mph 11.5 mph 69 % 0.00 in
22:58 83.9 °F 72.6 °F 29.75 in SSW 1.9 mph 7.0 mph 69 % 0.00 in
23:03 83.9 °F 72.6 °F 29.75 in South 4.6 mph 9.0 mph 69 % 0.00 in
23:08 83.9 °F 72.6 °F 29.75 in SSW 2.7 mph 5.8 mph 69 % 0.00 in
23:13 84.0 °F 72.7 °F 29.75 in SW 4.3 mph 7.0 mph 69 % 0.00 in
23:18 84.0 °F 72.7 °F 29.75 in SSW 3.1 mph 6.9 mph 69 % 0.00 in
23:23 83.9 °F 72.6 °F 29.76 in South 5.1 mph 6.9 mph 69 % 0.00 in
23:29 83.9 °F 72.6 °F 29.76 in SSW 4.7 mph 6.9 mph 69 % 0.00 in
23:34 83.8 °F 72.5 °F 29.76 in SSW 4.4 mph 6.9 mph 69 % 0.00 in
23:39 83.8 °F 72.5 °F 29.76 in WNW 0.9 mph 9.2 mph 69 % 0.00 in
23:44 83.7 °F 72.4 °F 29.76 in SSW 1.9 mph 3.5 mph 69 % 0.00 in
23:49 83.6 °F 72.3 °F 29.76 in WSW 3.5 mph 6.9 mph 69 % 0.00 in
23:54 83.4 °F 72.6 °F 29.76 in SSW 5.3 mph 6.9 mph 70 % 0.00 in
23:59 83.3 °F 72.5 °F 29.76 in WSW 2.7 mph 6.9 mph 70 % 0.00 in
Crab Meadow Weather
Compliments of Weather Underground - 3 mb

Script developed by  Jim McMurry - jmcmurry@mwt.net Adapted for the template by  Wim van der Kuil - Leuven-Template.eu

Recycling: Americans use 2,500,000 plastic bottles every hour! Most of them are thrown away!